createdAt,value
2023-02-09T00:01:18.778Z,102298.78
2023-02-09T00:03:45.939Z,102300.44
2023-02-09T00:06:16.745Z,102302.34
2023-02-09T00:08:43.874Z,102306.47
2023-02-09T00:11:15.900Z,102299.78
2023-02-09T00:13:43.985Z,102299.47
2023-02-09T00:16:11.159Z,102298.63
2023-02-09T00:18:38.020Z,102298.63
2023-02-09T00:21:10.819Z,102294.78
2023-02-09T00:23:40.446Z,102287.53
2023-02-09T00:26:11.468Z,102296.34
2023-02-09T00:28:41.250Z,102284.72
2023-02-09T00:31:10.764Z,102279.78
2023-02-09T00:33:40.966Z,102284.16
2023-02-09T00:36:11.948Z,102278.03
2023-02-09T00:38:39.592Z,102281.09
2023-02-09T00:41:07.292Z,102279.16
2023-02-09T00:43:34.369Z,102283.53
2023-02-09T00:46:01.176Z,102273.31
2023-02-09T00:48:28.299Z,102273.50
2023-02-09T00:50:56.668Z,102277.94
2023-02-09T00:53:24.005Z,102278.47
2023-02-09T00:55:51.033Z,102279.53
2023-02-09T00:58:20.618Z,102281.75
2023-02-09T01:00:48.757Z,102284.75
2023-02-09T01:03:15.363Z,102285.00
2023-02-09T01:05:42.904Z,102279.16
2023-02-09T01:08:11.129Z,102272.25
2023-02-09T01:10:38.583Z,102279.44
2023-02-09T01:13:06.068Z,102280.81
2023-02-09T01:15:33.087Z,102282.97
2023-02-09T01:18:00.232Z,102290.44
2023-02-09T01:20:27.731Z,102289.84
2023-02-09T01:22:54.654Z,102285.44
2023-02-09T01:25:21.391Z,102289.78
2023-02-09T01:27:48.262Z,102272.66
2023-02-09T01:30:15.581Z,102279.81
2023-02-09T01:32:42.552Z,102277.00
2023-02-09T01:35:10.627Z,102275.31
2023-02-09T01:37:37.452Z,102277.84
2023-02-09T01:40:05.493Z,102281.34
2023-02-09T01:42:32.949Z,102280.56
2023-02-09T01:45:08.734Z,102288.22
2023-02-09T01:47:44.417Z,102292.34
2023-02-09T01:50:12.002Z,102298.38
2023-02-09T01:52:39.848Z,102288.16
2023-02-09T01:55:10.989Z,102297.78
2023-02-09T01:57:46.404Z,102301.41
2023-02-09T02:00:17.995Z,102288.44
2023-02-09T02:02:49.111Z,102301.06
2023-02-09T02:05:17.624Z,102297.97
2023-02-09T02:07:51.716Z,102294.72
2023-02-09T02:10:18.530Z,102288.28
2023-02-09T02:12:45.352Z,102279.44
2023-02-09T02:15:12.777Z,102278.88
2023-02-09T02:18:00.972Z,102278.88
2023-02-09T02:21:02.790Z,102285.47
2023-02-09T02:23:41.613Z,102291.50
2023-02-09T02:26:27.492Z,102289.81
2023-02-09T02:29:03.064Z,102291.16
2023-02-09T02:32:00.245Z,102290.59
2023-02-09T02:34:51.745Z,102293.59
2023-02-09T02:37:33.500Z,102290.84
2023-02-09T02:40:12.135Z,102282.25
2023-02-09T02:42:49.311Z,102283.34
2023-02-09T02:45:28.445Z,102288.00
2023-02-09T02:48:08.457Z,102292.44
2023-02-09T02:50:39.905Z,102297.63
2023-02-09T02:53:11.732Z,102296.22
2023-02-09T02:55:39.657Z,102294.28
2023-02-09T02:58:09.919Z,102289.03
2023-02-09T03:00:45.324Z,102296.72
2023-02-09T03:03:18.429Z,102296.16
2023-02-09T03:05:46.086Z,102287.88
2023-02-09T03:08:12.863Z,102285.34
2023-02-09T03:10:41.088Z,102290.53
2023-02-09T03:13:26.059Z,102296.03
2023-02-09T03:16:02.401Z,102291.06
2023-02-09T03:18:47.962Z,102289.13
2023-02-09T03:21:16.836Z,102279.41
2023-02-09T03:23:46.531Z,102278.84
2023-02-09T03:26:21.418Z,102274.72
2023-02-09T03:28:54.809Z,102273.31
2023-02-09T03:31:22.438Z,102271.06
2023-02-09T03:33:49.747Z,102259.47
2023-02-09T03:36:19.475Z,102260.53
2023-02-09T03:38:46.158Z,102265.22
2023-02-09T03:41:12.861Z,102260.22
2023-02-09T03:43:58.382Z,102253.28
2023-02-09T03:46:25.283Z,102253.28
2023-02-09T03:48:52.282Z,102250.53
2023-02-09T03:51:18.983Z,102246.13
2023-02-09T03:53:47.269Z,102248.28
2023-02-09T03:56:14.055Z,102246.13
2023-02-09T03:58:40.932Z,102244.94
2023-02-09T04:01:09.805Z,102238.34
2023-02-09T04:03:39.820Z,102232.84
2023-02-09T04:06:07.446Z,102231.66
2023-02-09T04:08:34.226Z,102226.41
2023-02-09T04:11:01.073Z,102226.72
2023-02-09T04:13:28.471Z,102225.59
2023-02-09T04:15:55.244Z,102223.06
2023-02-09T04:18:21.906Z,102226.31
2023-02-09T04:20:48.542Z,102227.22
2023-02-09T04:23:16.438Z,102221.66
2023-02-09T04:25:43.239Z,102218.31
2023-02-09T04:28:10.047Z,102210.06
2023-02-09T04:30:36.855Z,102199.28
2023-02-09T04:33:03.926Z,102201.94
2023-02-09T04:35:30.729Z,102199.38
2023-02-09T04:37:57.496Z,102200.38
2023-02-09T04:40:24.184Z,102193.69
2023-02-09T04:42:51.001Z,102200.88
2023-02-09T04:45:18.012Z,102200.03
2023-02-09T04:47:44.851Z,102197.88
2023-02-09T04:50:11.685Z,102200.53
2023-02-09T04:52:38.475Z,102201.06
2023-02-09T04:55:05.502Z,102198.28
2023-02-09T04:57:50.858Z,102209.59
2023-02-09T05:00:17.849Z,102203.22
2023-02-09T05:02:44.466Z,102208.75
2023-02-09T05:05:11.123Z,102224.66
2023-02-09T05:07:37.841Z,102220.25
2023-02-09T05:10:04.799Z,102217.50
2023-02-09T05:12:31.442Z,102210.59
2023-02-09T05:14:58.025Z,102211.09
2023-02-09T05:17:24.640Z,102206.91
2023-02-09T05:19:51.365Z,102204.66
2023-02-09T05:22:17.955Z,102201.06
2023-02-09T05:24:44.621Z,102190.88
2023-02-09T05:27:11.193Z,102183.69
2023-02-09T05:29:37.976Z,102180.38
2023-02-09T05:32:05.118Z,102176.50
2023-02-09T05:34:33.476Z,102172.63
2023-02-09T05:37:00.098Z,102166.50
2023-02-09T05:39:29.682Z,102173.47
2023-02-09T05:42:14.793Z,102172.00
2023-02-09T05:44:43.543Z,102168.69
2023-02-09T05:47:10.452Z,102167.00
2023-02-09T05:49:37.350Z,102170.38
2023-02-09T05:52:06.104Z,102163.19
2023-02-09T05:54:32.929Z,102169.44
2023-02-09T05:56:59.656Z,102163.03
2023-02-09T05:59:26.576Z,102166.84
2023-02-09T06:01:53.506Z,102183.88
2023-02-09T06:04:20.790Z,102183.38
2023-02-09T06:06:47.550Z,102191.06
2023-02-09T06:09:14.328Z,102178.94
2023-02-09T06:11:41.029Z,102181.63
2023-02-09T06:14:07.901Z,102186.03
2023-02-09T06:16:34.584Z,102185.22
2023-02-09T06:19:01.289Z,102182.69
2023-02-09T06:21:28.205Z,102182.69
2023-02-09T06:23:55.067Z,102181.53
2023-02-09T06:26:21.910Z,102195.88
2023-02-09T06:28:48.591Z,102196.72
2023-02-09T06:31:15.583Z,102204.47
2023-02-09T06:33:42.598Z,102209.22
2023-02-09T06:36:09.956Z,102210.41
2023-02-09T06:38:37.769Z,102211.47
2023-02-09T06:41:05.387Z,102204.56
2023-02-09T06:43:32.305Z,102195.38
2023-02-09T06:45:58.997Z,102202.91
2023-02-09T06:48:25.635Z,102222.97
2023-02-09T06:50:52.291Z,102232.09
2023-02-09T06:53:19.269Z,102235.34
2023-02-09T06:55:46.197Z,102231.75
2023-02-09T06:58:12.977Z,102236.09
2023-02-09T07:00:39.648Z,102227.06
2023-02-09T07:03:06.331Z,102221.41
2023-02-09T07:05:33.011Z,102223.59
2023-02-09T07:07:59.738Z,102231.09
2023-02-09T07:10:26.575Z,102224.59
2023-02-09T07:12:53.423Z,102219.66
2023-02-09T07:15:20.201Z,102213.47
2023-02-09T07:17:46.966Z,102220.56
2023-02-09T07:20:13.895Z,102230.59
2023-02-09T07:22:41.172Z,102233.56
2023-02-09T07:25:08.374Z,102239.25
2023-02-09T07:27:35.278Z,102239.91
2023-02-09T07:30:02.112Z,102230.69
2023-02-09T07:32:28.791Z,102227.56
2023-02-09T07:34:55.486Z,102233.13
2023-02-09T07:37:22.417Z,102234.28
2023-02-09T07:39:49.172Z,102228.22
2023-02-09T07:42:15.908Z,102236.44
2023-02-09T07:44:49.358Z,102249.47
2023-02-09T07:47:16.108Z,102238.47
2023-02-09T07:49:42.825Z,102253.44
2023-02-09T07:52:09.502Z,102252.94
2023-02-09T07:54:36.386Z,102249.69
2023-02-09T07:57:03.229Z,102250.56
2023-02-09T07:59:29.832Z,102259.72
2023-02-09T08:01:56.565Z,102269.47
2023-02-09T08:04:24.011Z,102271.41
2023-02-09T08:06:50.748Z,102280.88
2023-02-09T08:09:17.486Z,102286.44
2023-02-09T08:11:53.297Z,102277.38
2023-02-09T08:14:27.735Z,102269.00
2023-02-09T08:17:17.988Z,102277.25
2023-02-09T08:19:58.681Z,102281.13
2023-02-09T08:22:30.110Z,102278.91
2023-02-09T08:24:57.947Z,102265.63
2023-02-09T08:27:24.781Z,102276.13
2023-02-09T08:29:51.882Z,102279.47
2023-02-09T08:32:18.556Z,102290.53
2023-02-09T08:34:45.137Z,102291.88
2023-02-09T08:37:11.762Z,102294.13
2023-02-09T08:39:38.425Z,102290.00
2023-02-09T08:42:05.263Z,102296.72
2023-02-09T08:44:31.917Z,102291.72
2023-02-09T08:46:58.686Z,102298.75
2023-02-09T08:49:25.473Z,102303.19
2023-02-09T08:51:52.403Z,102300.47
2023-02-09T08:54:19.333Z,102324.31
2023-02-09T08:56:46.012Z,102331.56
2023-02-09T08:59:12.734Z,102333.22
2023-02-09T09:01:40.457Z,102329.91
2023-02-09T09:04:07.860Z,102327.72
2023-02-09T09:06:34.688Z,102337.69
2023-02-09T09:09:01.640Z,102337.16
2023-02-09T09:11:29.732Z,102343.81
2023-02-09T09:13:58.297Z,102333.47
2023-02-09T09:16:24.958Z,102336.44
2023-02-09T09:18:51.621Z,102340.28
2023-02-09T09:21:19.501Z,102348.28
2023-02-09T09:23:47.373Z,102347.41
2023-02-09T09:26:14.885Z,102351.00
2023-02-09T09:28:41.575Z,102347.97
2023-02-09T09:31:14.136Z,102349.34
2023-02-09T09:33:41.991Z,102345.75
2023-02-09T09:36:10.531Z,102345.16
2023-02-09T09:38:39.416Z,102344.09
2023-02-09T09:41:19.037Z,102335.50
2023-02-09T09:43:45.786Z,102328.59
2023-02-09T09:46:19.189Z,102311.44
2023-02-09T09:48:52.895Z,102331.44
2023-02-09T09:51:42.807Z,102312.03
2023-02-09T09:54:21.878Z,102307.69
2023-02-09T09:56:49.861Z,102316.75
2023-02-09T09:59:20.451Z,102319.75
2023-02-09T10:01:49.706Z,102333.06
2023-02-09T10:04:16.590Z,102341.38
2023-02-09T10:06:45.869Z,102332.53
2023-02-09T10:09:29.606Z,102325.34
2023-02-09T10:12:07.575Z,102327.28
2023-02-09T10:14:34.219Z,102328.13
2023-02-09T10:17:00.971Z,102323.13
2023-02-09T10:19:29.311Z,102323.09
2023-02-09T10:21:56.274Z,102316.69
2023-02-09T10:24:31.316Z,102309.78
2023-02-09T10:27:21.260Z,102317.81
2023-02-09T10:29:48.431Z,102318.09
2023-02-09T10:32:23.724Z,102318.66
2023-02-09T10:34:53.250Z,102326.91
2023-02-09T10:37:27.618Z,102332.47
2023-02-09T10:40:08.900Z,102329.19
2023-02-09T10:42:37.757Z,102315.88
2023-02-09T10:45:26.785Z,102314.72
2023-02-09T10:48:23.581Z,102319.50
2023-02-09T10:50:53.481Z,102313.09
2023-02-09T10:53:31.503Z,102308.13
2023-02-09T10:56:22.609Z,102314.19
2023-02-09T11:07:32.187Z,102333.06
2023-02-09T11:10:01.990Z,102345.81
2023-02-09T11:12:29.215Z,102348.06
2023-02-09T11:14:56.133Z,102344.44
2023-02-09T11:17:28.113Z,102331.69
2023-02-09T11:20:00.404Z,102323.66
2023-02-09T11:22:30.006Z,102320.34
2023-02-09T11:25:23.056Z,102331.44
2023-02-09T11:28:34.725Z,102330.91
2023-02-09T11:31:22.910Z,102328.13
2023-02-09T11:33:57.794Z,102319.84
2023-02-09T11:36:55.009Z,102312.69
2023-02-09T11:39:43.429Z,102312.13
2023-02-09T11:42:36.505Z,102316.53
2023-02-09T11:45:29.399Z,102313.78
2023-02-09T11:48:18.219Z,102315.47
2023-02-09T11:51:08.859Z,102307.69
2023-02-09T11:53:57.137Z,102306.63
2023-02-09T11:56:25.831Z,102309.66
2023-02-09T11:59:37.168Z,102300.81
2023-02-09T12:02:41.846Z,102297.78
2023-02-09T12:05:14.822Z,102297.22
2023-02-09T12:07:43.976Z,102301.09
2023-02-09T12:10:13.067Z,102298.38
2023-02-09T12:12:48.959Z,102292.28
2023-02-09T12:15:24.373Z,102311.13
2023-02-09T12:17:56.971Z,102323.31
2023-02-09T12:20:38.852Z,102305.28
2023-02-09T12:23:30.390Z,102292.00
2023-02-09T12:26:54.614Z,102301.72
2023-02-09T12:29:40.056Z,102293.09
2023-02-09T12:32:06.862Z,102298.66
2023-02-09T12:34:41.829Z,102293.38
2023-02-09T12:37:14.520Z,102303.63
2023-02-09T12:40:12.109Z,102290.88
2023-02-09T12:42:40.837Z,102299.47
2023-02-09T12:45:43.835Z,102292.84
2023-02-09T12:48:19.286Z,102288.94
2023-02-09T12:50:52.438Z,102297.81
2023-02-09T12:53:21.642Z,102287.81
2023-02-09T12:56:07.157Z,102279.78
2023-02-09T12:58:39.170Z,102275.59
2023-02-09T13:01:06.624Z,102276.44
2023-02-09T13:03:43.946Z,102287.78
2023-02-09T13:06:27.141Z,102280.59
2023-02-09T13:08:57.268Z,102289.22
2023-02-09T13:11:30.486Z,102287.81
2023-02-09T13:14:03.265Z,102287.25
2023-02-09T13:16:30.188Z,102292.78
2023-02-09T13:18:59.889Z,102292.25
2023-02-09T13:21:27.194Z,102290.88
2023-02-09T13:23:53.886Z,102290.03
2023-02-09T13:26:24.618Z,102295.03
2023-02-09T13:29:20.325Z,102293.34
2023-02-09T13:32:11.712Z,102282.28
2023-02-09T13:34:41.269Z,102291.13
2023-02-09T13:37:45.331Z,102288.34
2023-02-09T13:40:24.970Z,102280.00
2023-02-09T13:43:11.617Z,102285.00
2023-02-09T13:45:49.655Z,102280.59
2023-02-09T13:48:38.375Z,102295.00
2023-02-09T13:51:16.206Z,102293.88
2023-02-09T13:53:56.244Z,102301.09
2023-02-09T13:56:23.380Z,102298.06
2023-02-09T13:58:50.426Z,102303.91
2023-02-09T14:01:27.350Z,102303.91
2023-02-09T14:04:17.914Z,102301.38
2023-02-09T14:07:08.917Z,102305.56
2023-02-09T14:10:01.378Z,102302.22
2023-02-09T14:12:59.908Z,102300.56
2023-02-09T14:15:50.292Z,102301.69
2023-02-09T14:18:45.794Z,102296.69
2023-02-09T14:21:15.561Z,102286.69
2023-02-09T14:23:45.233Z,102290.59
2023-02-09T14:26:15.276Z,102279.44
2023-02-09T14:28:50.165Z,102284.44
2023-02-09T14:31:23.681Z,102281.38
2023-02-09T14:33:53.460Z,102278.03
2023-02-09T14:36:24.534Z,102281.66
2023-02-09T14:38:51.908Z,102291.09
2023-02-09T14:41:31.875Z,102287.78
2023-02-09T14:44:14.383Z,102303.91
2023-02-09T14:46:53.884Z,102296.09
2023-02-09T14:49:21.418Z,102300.84
2023-02-09T14:51:50.495Z,102295.84
2023-02-09T14:54:25.482Z,102295.56
2023-02-09T14:56:54.713Z,102300.31
2023-02-09T14:59:22.179Z,102296.41
2023-02-09T15:01:51.825Z,102298.09
2023-02-09T15:04:19.520Z,102297.81
2023-02-09T15:06:50.166Z,102307.25
2023-02-09T15:09:37.087Z,102311.13
2023-02-09T15:12:05.083Z,102316.91
2023-02-09T15:14:47.166Z,102317.19
2023-02-09T15:17:17.584Z,102323.03
2023-02-09T15:19:45.814Z,102326.63
2023-02-09T15:22:15.254Z,102329.09
2023-02-09T15:24:42.767Z,102323.53
2023-02-09T15:27:23.061Z,102323.25
2023-02-09T15:29:49.713Z,102331.03
2023-02-09T15:32:18.534Z,102330.47
2023-02-09T15:34:45.611Z,102335.53
2023-02-09T15:37:25.393Z,102337.16
2023-02-09T15:39:59.575Z,102348.84
2023-02-09T15:42:45.187Z,102349.94
2023-02-09T15:45:40.335Z,102349.41
2023-02-09T15:48:08.077Z,102357.44
2023-02-09T15:50:38.867Z,102353.25
2023-02-09T15:53:08.454Z,102354.66
2023-02-09T15:55:36.098Z,102361.06
2023-02-09T15:58:04.227Z,102361.06
2023-02-09T16:00:31.466Z,102367.13
2023-02-09T16:03:01.455Z,102366.03
2023-02-09T16:05:30.145Z,102362.13
2023-02-09T16:07:58.854Z,102373.81
2023-02-09T16:10:28.647Z,102369.94
2023-02-09T16:12:56.594Z,102364.09
2023-02-09T16:15:26.076Z,102371.59
2023-02-09T16:17:53.074Z,102383.25
2023-02-09T16:20:20.275Z,102386.88
2023-02-09T16:22:49.158Z,102381.63
2023-02-09T16:25:25.094Z,102376.34
2023-02-09T16:27:53.582Z,102386.06
2023-02-09T16:30:27.558Z,102389.38
2023-02-09T16:32:55.037Z,102398.84
2023-02-09T16:35:24.396Z,102400.47
2023-02-09T16:37:52.829Z,102393.84
2023-02-09T16:40:31.561Z,102399.94
2023-02-09T16:43:01.093Z,102400.22
2023-02-09T16:45:30.395Z,102414.91
2023-02-09T16:47:59.424Z,102416.59
2023-02-09T16:50:33.262Z,102414.91
2023-02-09T16:53:03.234Z,102425.47
2023-02-09T16:55:33.216Z,102422.69
2023-02-09T16:58:02.159Z,102426.59
2023-02-09T17:00:36.291Z,102432.41
2023-02-09T17:03:09.351Z,102442.69
2023-02-09T17:05:37.191Z,102446.53
2023-02-09T17:08:12.382Z,102453.78
2023-02-09T17:10:39.221Z,102442.09
2023-02-09T17:13:05.812Z,102440.47
2023-02-09T17:15:45.129Z,102441.56
2023-02-09T17:18:20.483Z,102434.63
2023-02-09T17:20:53.046Z,102443.78
2023-02-09T17:23:23.478Z,102444.88
2023-02-09T17:25:51.571Z,102441.00
2023-02-09T17:28:19.320Z,102444.59
2023-02-09T17:30:47.778Z,102444.06
2023-02-09T17:33:23.818Z,102457.13
2023-02-09T17:38:42.081Z,102469.88
2023-02-09T17:41:29.093Z,102469.34
2023-02-09T17:44:13.853Z,102473.22
2023-02-09T17:46:45.103Z,102473.22
2023-02-09T17:49:12.192Z,102480.44
2023-02-09T17:51:41.494Z,102480.44
2023-02-09T17:54:14.440Z,102494.31
2023-02-09T17:56:41.666Z,102490.44
2023-02-09T17:59:08.492Z,102500.41
2023-02-09T18:01:40.541Z,102497.63
2023-02-09T18:04:07.926Z,102500.16
2023-02-09T18:06:40.740Z,102505.16
2023-02-09T18:09:10.938Z,102510.97
2023-02-09T18:12:03.681Z,102505.94
2023-02-09T18:14:33.549Z,102512.56
2023-02-09T18:17:02.237Z,102509.81
2023-02-09T18:19:29.102Z,102513.19
2023-02-09T18:21:59.045Z,102514.88
2023-02-09T18:24:28.893Z,102509.31
2023-02-09T18:26:55.780Z,102512.63
2023-02-09T18:29:26.197Z,102514.81
2023-02-09T18:31:53.099Z,102512.34
2023-02-09T18:34:19.956Z,102515.97
2023-02-09T18:36:46.885Z,102512.34
2023-02-09T18:39:15.314Z,102510.41
2023-02-09T18:41:42.380Z,102517.66
2023-02-09T18:44:09.900Z,102518.75
2023-02-09T18:46:36.785Z,102519.56
2023-02-09T18:49:03.870Z,102517.66
2023-02-09T18:51:31.328Z,102532.63
2023-02-09T18:53:58.912Z,102524.84
2023-02-09T18:56:28.181Z,102529.84
2023-02-09T18:58:55.236Z,102525.41
2023-02-09T19:01:23.083Z,102526.81
2023-02-09T19:03:53.828Z,102538.47
2023-02-09T19:06:22.436Z,102537.06
2023-02-09T19:08:50.443Z,102537.63
2023-02-09T19:11:20.191Z,102534.31
2023-02-09T19:14:05.973Z,102543.72
2023-02-09T19:16:33.864Z,102546.78
2023-02-09T19:19:00.784Z,102543.16
2023-02-09T19:21:28.342Z,102550.94
2023-02-09T19:23:55.334Z,102544.28
2023-02-09T19:26:22.005Z,102552.06
2023-02-09T19:28:48.746Z,102545.41
2023-02-09T19:31:17.504Z,102559.25
2023-02-09T19:33:44.649Z,102565.94
2023-02-09T19:36:11.810Z,102561.78
2023-02-09T19:38:38.634Z,102555.38
2023-02-09T19:41:12.053Z,102562.06
2023-02-09T19:43:40.129Z,102575.94
2023-02-09T19:46:07.939Z,102579.25
2023-02-09T19:48:34.785Z,102579.81
2023-02-09T19:51:01.669Z,102578.97
2023-02-09T19:53:28.631Z,102577.88
2023-02-09T19:55:55.959Z,102579.81
2023-02-09T19:58:23.157Z,102579.81
2023-02-09T20:00:51.412Z,102576.78
2023-02-09T20:03:18.772Z,102573.72
2023-02-09T20:05:46.286Z,102578.72
2023-02-09T20:08:16.650Z,102590.38
2023-02-09T20:10:44.464Z,102588.16
2023-02-09T20:13:14.449Z,102594.28
2023-02-09T20:15:42.746Z,102591.50
2023-02-09T20:18:10.874Z,102589.81
2023-02-09T20:20:42.523Z,102590.38
2023-02-09T20:23:10.084Z,102595.97
2023-02-09T20:25:40.894Z,102600.63
2023-02-09T20:28:07.918Z,102603.41
2023-02-09T20:30:35.414Z,102607.03
2023-02-09T20:33:02.253Z,102609.81
2023-02-09T20:35:29.097Z,102608.41
2023-02-09T20:37:55.939Z,102612.03
2023-02-09T20:40:23.828Z,102605.34
2023-02-09T20:43:08.809Z,102609.00
2023-02-09T20:45:54.125Z,102612.06
2023-02-09T20:48:20.810Z,102616.50
2023-02-09T20:50:47.796Z,102613.09
2023-02-09T20:53:14.760Z,102613.03
2023-02-09T20:55:42.954Z,102619.13
2023-02-09T20:58:13.498Z,102613.25
2023-02-09T21:00:42.142Z,102609.63
2023-02-09T21:03:09.240Z,102613.75
2023-02-09T21:05:36.081Z,102617.88
2023-02-09T21:08:04.479Z,102620.63
2023-02-09T21:10:35.846Z,102619.75
2023-02-09T21:13:03.652Z,102625.53
2023-02-09T21:15:30.316Z,102627.72
2023-02-09T21:17:57.281Z,102628.25
2023-02-09T21:20:24.157Z,102637.34
2023-02-09T21:22:51.837Z,102631.50
2023-02-09T21:25:19.465Z,102630.38
2023-02-09T21:27:46.284Z,102634.78
2023-02-09T21:30:13.728Z,102632.53
2023-02-09T21:32:40.651Z,102626.97
2023-02-09T21:35:10.195Z,102630.84
2023-02-09T21:37:38.891Z,102640.22
2023-02-09T21:40:06.586Z,102646.03
2023-02-09T21:42:35.507Z,102644.06
2023-02-09T21:45:02.429Z,102646.50
2023-02-09T21:47:34.313Z,102649.81
2023-02-09T21:50:01.097Z,102647.84
2023-02-09T21:52:28.301Z,102649.16
2023-02-09T21:54:55.089Z,102642.47
2023-02-09T21:57:22.727Z,102644.69
2023-02-09T21:59:49.574Z,102650.75
2023-02-09T22:02:18.315Z,102654.06
2023-02-09T22:04:46.705Z,102661.19
2023-02-09T22:07:14.836Z,102653.97
2023-02-09T22:09:41.618Z,102653.69
2023-02-09T22:12:08.645Z,102644.22
2023-02-09T22:14:35.736Z,102656.38
2023-02-09T22:17:02.610Z,102649.19
2023-02-09T22:19:29.357Z,102650.56
2023-02-09T22:21:58.113Z,102654.66
2023-02-09T22:24:25.219Z,102652.44
2023-02-09T22:26:52.071Z,102657.66
2023-02-09T22:29:19.592Z,102661.78
2023-02-09T22:31:46.578Z,102660.63
2023-02-09T22:34:13.499Z,102657.84
2023-02-09T22:36:40.287Z,102657.28
2023-02-09T22:39:07.418Z,102656.41
2023-02-09T22:41:34.432Z,102658.56
2023-02-09T22:44:04.533Z,102664.09
2023-02-09T22:46:35.018Z,102661.63
2023-02-09T22:49:07.859Z,102650.22
2023-02-09T22:51:36.150Z,102649.09
2023-02-09T22:54:04.019Z,102665.38
2023-02-09T22:56:31.057Z,102658.66
2023-02-09T22:59:00.099Z,102655.56
2023-02-09T23:01:28.509Z,102659.19
2023-02-09T23:03:55.505Z,102648.63
2023-02-09T23:06:24.644Z,102653.25
2023-02-09T23:08:56.232Z,102645.81
2023-02-09T23:11:23.376Z,102646.31
2023-02-09T23:13:55.066Z,102644.34
2023-02-09T23:16:34.171Z,102644.00
2023-02-09T23:19:04.425Z,102650.38
2023-02-09T23:21:34.616Z,102647.84
2023-02-09T23:24:01.901Z,102649.22
2023-02-09T23:26:29.454Z,102652.25
2023-02-09T23:28:59.877Z,102655.25
2023-02-09T23:31:27.053Z,102658.28
2023-02-09T23:33:54.509Z,102666.00
2023-02-09T23:36:24.708Z,102668.19
2023-02-09T23:38:56.524Z,102663.16
2023-02-09T23:41:23.862Z,102660.66
2023-02-09T23:43:51.843Z,102658.41
2023-02-09T23:46:22.178Z,102663.66
2023-02-09T23:48:50.179Z,102671.41
2023-02-09T23:51:24.226Z,102666.72
2023-02-09T23:53:51.077Z,102656.72
2023-02-09T23:56:18.564Z,102665.88
2023-02-09T23:58:47.370Z,102664.44
